Time;durP1;ratioP1;P1;durP2;ratioP2;P2;SDS_P1;SDS_P2;PMS_P1;PMS_P2;Temp;Humidity;BMP_temperature;BMP_pressure;BME280_temperature;BME280_humidity;BME280_pressure;Samples;Min_cycle;Max_cycle;Signal;HPM_P1;HPM_P2
2022/08/30 00:02:13;;;;;;;;;;;17.50;99.90;;;;;;4212098;28;20291;-59
2022/08/30 00:04:15;;;;;;;;;;;17.60;99.90;;;;;;4213063;28;19932;-58
2022/08/30 00:06:18;;;;;;;;;;;17.60;99.90;;;;;;4213239;28;19924;-59
2022/08/30 00:08:20;;;;;;;;;;;17.70;99.90;;;;;;4196285;28;19928;-57
2022/08/30 00:10:22;;;;;;;;;;;17.70;99.90;;;;;;4204071;28;19928;-59
2022/08/30 00:12:24;;;;;;;;;;;17.70;99.90;;;;;;4213281;28;19942;-58
2022/08/30 00:14:26;;;;;;;;;;;17.80;99.90;;;;;;4213299;28;19928;-59
2022/08/30 00:16:28;;;;;;;;;;;17.80;99.90;;;;;;4213283;28;19924;-59
2022/08/30 00:18:30;;;;;;;;;;;17.80;99.90;;;;;;4213194;28;20007;-59
2022/08/30 00:20:33;;;;;;;;;;;17.80;99.90;;;;;;4213192;28;19935;-59
2022/08/30 00:22:35;;;;;;;;;;;17.70;99.90;;;;;;4212994;28;19924;-59
2022/08/30 00:24:38;;;;;;;;;;;17.60;99.90;;;;;;4213096;28;19924;-59
2022/08/30 00:26:40;;;;;;;;;;;17.50;99.90;;;;;;4213308;28;19928;-59
2022/08/30 00:28:41;;;;;;;;;;;17.50;99.90;;;;;;4213012;28;19924;-59
2022/08/30 00:30:44;;;;;;;;;;;17.60;99.90;;;;;;4212949;28;20407;-59
2022/08/30 00:32:46;;;;;;;;;;;17.60;99.90;;;;;;4212722;28;19935;-59
2022/08/30 00:34:49;;;;;;;;;;;17.50;99.90;;;;;;4213180;28;20015;-59
2022/08/30 00:36:51;;;;;;;;;;;17.50;99.90;;;;;;4213128;28;19981;-57
2022/08/30 00:38:53;;;;;;;;;;;17.40;99.90;;;;;;4212953;28;19973;-59
2022/08/30 00:40:54;;;;;;;;;;;17.40;99.90;;;;;;4212534;28;19925;-59
2022/08/30 00:42:58;;;;;;;;;;;17.50;99.90;;;;;;4212769;28;19928;-59
2022/08/30 00:45:08;;;;;;;;;;;17.50;99.90;;;;;;4212649;28;19932;-59
2022/08/30 00:47:10;;;;;;;;;;;17.50;99.90;;;;;;4216534;28;19928;-58
2022/08/30 00:49:13;;;;;;;;;;;17.50;99.90;;;;;;4217259;27;19924;-58
2022/08/30 00:51:15;;;;;;;;;;;17.40;99.90;;;;;;4213053;28;20026;-58
2022/08/30 00:53:19;;;;;;;;;;;17.40;99.90;;;;;;4212584;28;19934;-58
2022/08/30 00:55:21;;;;;;;;;;;17.40;99.90;;;;;;4212680;28;20348;-57
2022/08/30 00:57:23;;;;;;;;;;;17.50;99.90;;;;;;4212617;28;20298;-59
2022/08/30 00:59:26;;;;;;;;;;;17.40;99.90;;;;;;4212470;28;20290;-59
2022/08/30 01:01:28;;;;;;;;;;;17.30;99.90;;;;;;4211320;28;19934;-57
2022/08/30 01:03:32;;;;;;;;;;;17.20;99.90;;;;;;4212501;28;19928;-59
2022/08/30 01:05:37;;;;;;;;;;;17.10;99.90;;;;;;4212545;28;19924;-59
2022/08/30 01:07:40;;;;;;;;;;;17.00;99.90;;;;;;4212659;28;20932;-58
2022/08/30 01:09:42;;;;;;;;;;;16.90;99.90;;;;;;4212042;28;20298;-59
2022/08/30 01:11:45;;;;;;;;;;;16.80;99.90;;;;;;4212689;28;20371;-58
2022/08/30 01:13:48;;;;;;;;;;;16.80;99.90;;;;;;4211998;28;20382;-58
2022/08/30 01:15:50;;;;;;;;;;;16.70;99.90;;;;;;4212549;28;20311;-58
2022/08/30 01:17:52;;;;;;;;;;;16.70;99.90;;;;;;4212273;28;20043;-57
2022/08/30 01:20:06;;;;;;;;;;;16.70;99.90;;;;;;4212163;28;19924;-59
2022/08/30 01:22:26;;;;;;;;;;;16.70;99.90;;;;;;4212467;28;19931;-58
2022/08/30 01:24:29;;;;;;;;;;;16.70;99.90;;;;;;4212136;28;19925;-58
2022/08/30 01:26:31;;;;;;;;;;;16.80;99.90;;;;;;4212477;28;20363;-59
2022/08/30 01:28:35;;;;;;;;;;;16.90;99.90;;;;;;4212467;28;19928;-59
2022/08/30 01:30:41;;;;;;;;;;;16.90;99.90;;;;;;4211682;28;20302;-58
2022/08/30 01:32:46;;;;;;;;;;;16.90;99.90;;;;;;4212228;28;19936;-58
2022/08/30 01:34:48;;;;;;;;;;;16.90;99.90;;;;;;4211870;28;20359;-58
2022/08/30 01:36:50;;;;;;;;;;;16.90;99.90;;;;;;4212312;28;19969;-58
2022/08/30 01:38:54;;;;;;;;;;;16.90;99.90;;;;;;4212053;28;19985;-58
2022/08/30 01:41:08;;;;;;;;;;;16.90;99.90;;;;;;4212153;28;20038;-59
2022/08/30 01:43:11;;;;;;;;;;;16.80;99.90;;;;;;4214050;28;19977;-59
2022/08/30 01:45:13;;;;;;;;;;;16.70;99.90;;;;;;4228658;28;19928;-58
2022/08/30 01:47:17;;;;;;;;;;;16.70;99.90;;;;;;4211907;28;19931;-58
2022/08/30 01:49:19;;;;;;;;;;;16.60;99.90;;;;;;4212065;28;19924;-59
2022/08/30 01:51:28;;;;;;;;;;;16.60;99.90;;;;;;4212178;28;19928;-59
2022/08/30 01:53:31;;;;;;;;;;;16.50;99.90;;;;;;4215282;28;19935;-59
2022/08/30 01:55:33;;;;;;;;;;;16.50;99.90;;;;;;4215362;28;19935;-58
2022/08/30 01:57:35;;;;;;;;;;;16.50;99.90;;;;;;4215413;28;20303;-59
2022/08/30 01:59:38;;;;;;;;;;;16.50;99.90;;;;;;4215379;28;20310;-59
2022/08/30 02:01:41;;;;;;;;;;;16.70;99.90;;;;;;4215484;28;20414;-58
2022/08/30 02:03:44;;;;;;;;;;;16.70;99.90;;;;;;4215383;28;19935;-59
2022/08/30 02:05:47;;;;;;;;;;;16.70;99.90;;;;;;4215555;28;19924;-58
2022/08/30 02:07:49;;;;;;;;;;;16.60;99.90;;;;;;4215256;28;20058;-58
2022/08/30 02:09:52;;;;;;;;;;;16.60;99.90;;;;;;4214094;28;19971;-59
2022/08/30 02:11:54;;;;;;;;;;;16.50;99.90;;;;;;4215119;28;19924;-59
2022/08/30 02:13:56;;;;;;;;;;;16.50;99.90;;;;;;4215335;28;19924;-58
2022/08/30 02:15:58;;;;;;;;;;;16.50;99.90;;;;;;4215505;28;19928;-58
2022/08/30 02:18:00;;;;;;;;;;;16.40;99.90;;;;;;4215297;28;19924;-58
2022/08/30 02:20:03;;;;;;;;;;;16.40;99.90;;;;;;4215408;28;19931;-58
2022/08/30 02:22:05;;;;;;;;;;;16.50;99.90;;;;;;4214925;28;19971;-58
2022/08/30 02:24:07;;;;;;;;;;;16.50;99.90;;;;;;4214824;28;20299;-58
2022/08/30 02:26:10;;;;;;;;;;;16.50;99.90;;;;;;4214909;28;20333;-58
2022/08/30 02:28:13;;;;;;;;;;;16.50;99.90;;;;;;4214766;28;20307;-59
2022/08/30 02:30:17;;;;;;;;;;;16.50;99.90;;;;;;4214687;28;20007;-58
2022/08/30 02:32:18;;;;;;;;;;;16.40;99.90;;;;;;4215078;28;20007;-59
2022/08/30 02:34:20;;;;;;;;;;;16.40;99.90;;;;;;4214367;28;20339;-59
2022/08/30 02:36:22;;;;;;;;;;;16.50;99.90;;;;;;4214684;28;19931;-59
2022/08/30 02:38:24;;;;;;;;;;;16.50;99.90;;;;;;4214809;28;20394;-59
2022/08/30 02:40:27;;;;;;;;;;;16.50;99.90;;;;;;4216308;28;19932;-57
2022/08/30 02:42:29;;;;;;;;;;;16.50;99.90;;;;;;4214899;28;19927;-59
2022/08/30 02:44:30;;;;;;;;;;;16.50;99.90;;;;;;4214817;28;19932;-58
2022/08/30 02:46:33;;;;;;;;;;;16.50;99.90;;;;;;4214354;28;20413;-58
2022/08/30 02:48:35;;;;;;;;;;;16.50;99.90;;;;;;4214763;28;19931;-58
2022/08/30 02:50:41;;;;;;;;;;;16.50;99.90;;;;;;4213225;28;19974;-59
2022/08/30 02:52:43;;;;;;;;;;;16.50;99.90;;;;;;4214800;28;19934;-59
2022/08/30 02:54:45;;;;;;;;;;;16.40;99.90;;;;;;4214675;28;19924;-59
2022/08/30 02:56:48;;;;;;;;;;;16.30;99.90;;;;;;4214497;28;19949;-59
2022/08/30 02:58:50;;;;;;;;;;;16.30;99.90;;;;;;4214350;28;19932;-59
2022/08/30 03:00:52;;;;;;;;;;;16.30;99.90;;;;;;4214688;28;19931;-59
2022/08/30 03:02:54;;;;;;;;;;;16.20;99.90;;;;;;4214239;28;19978;-58
2022/08/30 03:04:56;;;;;;;;;;;16.30;99.90;;;;;;4214391;28;20031;-58
2022/08/30 03:06:58;;;;;;;;;;;16.30;99.90;;;;;;4214220;28;19928;-58
2022/08/30 03:09:00;;;;;;;;;;;16.20;99.90;;;;;;4214476;28;19982;-58
2022/08/30 03:11:02;;;;;;;;;;;16.20;99.90;;;;;;4214318;28;20442;-58
2022/08/30 03:13:06;;;;;;;;;;;16.20;99.90;;;;;;4214337;28;19928;-59
2022/08/30 03:15:09;;;;;;;;;;;16.10;99.90;;;;;;4214104;28;19932;-59
2022/08/30 03:17:11;;;;;;;;;;;16.00;99.90;;;;;;4214430;28;20018;-59
2022/08/30 03:19:16;;;;;;;;;;;16.00;99.90;;;;;;4214108;28;19950;-58
2022/08/30 03:21:18;;;;;;;;;;;15.90;99.90;;;;;;4213772;28;19931;-57
2022/08/30 03:23:20;;;;;;;;;;;15.90;99.90;;;;;;4214129;28;19928;-59
2022/08/30 03:25:22;;;;;;;;;;;15.80;99.90;;;;;;4213883;28;20035;-58
2022/08/30 03:27:25;;;;;;;;;;;15.90;99.90;;;;;;4214017;28;20026;-56
2022/08/30 03:29:28;;;;;;;;;;;16.00;99.90;;;;;;4213141;28;19924;-58
2022/08/30 03:31:30;;;;;;;;;;;16.10;99.90;;;;;;4213589;28;19928;-59
2022/08/30 03:33:32;;;;;;;;;;;16.10;99.90;;;;;;4213902;28;19931;-58
2022/08/30 03:35:34;;;;;;;;;;;16.00;99.90;;;;;;4215473;28;19953;-58
2022/08/30 03:37:36;;;;;;;;;;;16.00;99.90;;;;;;4223790;28;19928;-59
2022/08/30 03:39:38;;;;;;;;;;;16.00;99.90;;;;;;4212554;28;20656;-57
2022/08/30 03:41:40;;;;;;;;;;;16.00;99.90;;;;;;4213963;28;19963;-59
2022/08/30 03:43:42;;;;;;;;;;;16.00;99.90;;;;;;4213908;28;20351;-57
2022/08/30 03:45:44;;;;;;;;;;;16.00;99.90;;;;;;4213794;28;19924;-59
2022/08/30 03:47:46;;;;;;;;;;;16.00;99.90;;;;;;4213322;28;19925;-58
2022/08/30 03:49:48;;;;;;;;;;;15.90;99.90;;;;;;4213679;28;20027;-58
2022/08/30 03:51:50;;;;;;;;;;;15.90;99.90;;;;;;4213804;28;20011;-59
2022/08/30 03:53:52;;;;;;;;;;;16.00;99.90;;;;;;4213415;28;19924;-59
2022/08/30 03:55:54;;;;;;;;;;;16.00;99.90;;;;;;4213633;28;19928;-59
2022/08/30 03:57:56;;;;;;;;;;;15.90;99.90;;;;;;4213611;28;19924;-59
2022/08/30 03:59:58;;;;;;;;;;;15.80;99.90;;;;;;4213378;28;19932;-58
2022/08/30 04:02:00;;;;;;;;;;;15.70;99.90;;;;;;4213289;28;20015;-58
2022/08/30 04:04:02;;;;;;;;;;;15.70;99.90;;;;;;4213564;28;19932;-58
2022/08/30 04:06:04;;;;;;;;;;;15.60;99.90;;;;;;4213328;28;19924;-59
2022/08/30 04:08:07;;;;;;;;;;;15.60;99.90;;;;;;4212755;28;20508;-58
2022/08/30 04:10:11;;;;;;;;;;;15.60;99.90;;;;;;4212799;28;19924;-58
2022/08/30 04:12:13;;;;;;;;;;;15.70;99.90;;;;;;4212963;28;19924;-59
2022/08/30 04:14:15;;;;;;;;;;;15.80;99.90;;;;;;4212801;28;20470;-58
2022/08/30 04:16:18;;;;;;;;;;;15.90;99.90;;;;;;4202886;28;20015;-58
2022/08/30 04:18:20;;;;;;;;;;;15.90;99.90;;;;;;4196927;28;19928;-57
2022/08/30 04:20:22;;;;;;;;;;;15.80;99.90;;;;;;4213163;28;19928;-59
2022/08/30 04:22:24;;;;;;;;;;;15.70;99.90;;;;;;4213031;28;20383;-59
2022/08/30 04:24:26;;;;;;;;;;;15.70;99.90;;;;;;4212948;28;20303;-58
2022/08/30 04:26:29;;;;;;;;;;;15.60;99.90;;;;;;4213061;28;19928;-59
2022/08/30 04:28:32;;;;;;;;;;;15.60;99.90;;;;;;4213015;28;20301;-59
2022/08/30 04:30:37;;;;;;;;;;;15.60;99.90;;;;;;4213037;28;19935;-59
2022/08/30 04:32:39;;;;;;;;;;;15.60;99.90;;;;;;4220945;28;19927;-58
2022/08/30 04:34:42;;;;;;;;;;;15.60;99.90;;;;;;4225732;28;19981;-58
2022/08/30 04:36:44;;;;;;;;;;;15.50;99.90;;;;;;4212762;28;20011;-58
2022/08/30 04:38:49;;;;;;;;;;;15.60;99.90;;;;;;4212946;28;20018;-58
2022/08/30 04:40:51;;;;;;;;;;;15.60;99.90;;;;;;4212846;28;20018;-58
2022/08/30 04:42:55;;;;;;;;;;;15.60;99.90;;;;;;4212979;28;19928;-58
2022/08/30 04:44:57;;;;;;;;;;;15.60;99.90;;;;;;4212851;28;19975;-58
2022/08/30 04:46:59;;;;;;;;;;;15.60;99.90;;;;;;4211238;28;19928;-58
2022/08/30 04:49:01;;;;;;;;;;;15.70;99.90;;;;;;4212767;28;19928;-59
2022/08/30 04:51:08;;;;;;;;;;;15.70;99.90;;;;;;4212897;28;19928;-59
2022/08/30 04:53:14;;;;;;;;;;;15.70;99.90;;;;;;4212704;28;19928;-59
2022/08/30 04:55:16;;;;;;;;;;;15.60;99.90;;;;;;4212500;28;19981;-59
2022/08/30 04:57:21;;;;;;;;;;;15.70;99.90;;;;;;4212577;28;19947;-61
2022/08/30 04:59:23;;;;;;;;;;;15.70;99.90;;;;;;4212726;28;20051;-61
2022/08/30 05:01:26;;;;;;;;;;;15.70;99.90;;;;;;4212929;28;19924;-59
2022/08/30 05:03:28;;;;;;;;;;;15.60;99.90;;;;;;4212312;28;19939;-59
2022/08/30 05:05:40;;;;;;;;;;;15.60;99.90;;;;;;4212592;28;20019;-59
2022/08/30 05:07:42;;;;;;;;;;;15.70;99.90;;;;;;4212845;28;19924;-57
2022/08/30 05:09:44;;;;;;;;;;;15.60;99.90;;;;;;4213794;28;19970;-59
2022/08/30 05:11:46;;;;;;;;;;;15.60;99.90;;;;;;4213893;28;20386;-60
2022/08/30 05:13:48;;;;;;;;;;;15.60;99.90;;;;;;4213423;28;20386;-58
2022/08/30 05:15:50;;;;;;;;;;;15.60;99.90;;;;;;4213721;28;19932;-59
2022/08/30 05:17:52;;;;;;;;;;;15.70;99.90;;;;;;4213185;28;20450;-58
2022/08/30 05:19:54;;;;;;;;;;;15.60;99.90;;;;;;4212155;28;20616;-58
2022/08/30 05:21:56;;;;;;;;;;;15.50;99.90;;;;;;4211829;28;19928;-59
2022/08/30 05:23:59;;;;;;;;;;;15.60;99.90;;;;;;4213037;28;19927;-58
2022/08/30 05:26:08;;;;;;;;;;;15.50;99.90;;;;;;4212941;28;19928;-58
2022/08/30 05:28:10;;;;;;;;;;;15.50;99.90;;;;;;4215568;28;19928;-59
2022/08/30 05:30:13;;;;;;;;;;;15.40;99.90;;;;;;4215097;28;19957;-59
2022/08/30 05:32:16;;;;;;;;;;;15.40;99.90;;;;;;4212017;28;20027;-58
2022/08/30 05:34:19;;;;;;;;;;;15.50;99.90;;;;;;4212197;28;19934;-58
2022/08/30 05:36:22;;;;;;;;;;;15.50;99.90;;;;;;4211592;28;19924;-59
2022/08/30 05:38:24;;;;;;;;;;;15.50;99.90;;;;;;4212232;28;20280;-58
2022/08/30 05:40:26;;;;;;;;;;;15.50;99.90;;;;;;4213179;28;19935;-58
2022/08/30 05:42:30;;;;;;;;;;;15.50;99.90;;;;;;4213255;28;19930;-59
2022/08/30 05:44:32;;;;;;;;;;;15.60;99.90;;;;;;4213351;28;19927;-59
2022/08/30 05:46:34;;;;;;;;;;;15.60;99.90;;;;;;4213081;28;20024;-58
2022/08/30 05:48:37;;;;;;;;;;;15.60;99.90;;;;;;4213560;28;19977;-59
2022/08/30 05:50:39;;;;;;;;;;;15.60;99.90;;;;;;4213650;28;19963;-58
2022/08/30 05:52:42;;;;;;;;;;;15.70;99.90;;;;;;4212427;28;19925;-59
2022/08/30 05:54:44;;;;;;;;;;;15.70;99.90;;;;;;4213437;28;19981;-58
2022/08/30 05:56:46;;;;;;;;;;;15.70;99.90;;;;;;4213551;28;20474;-59
2022/08/30 05:58:48;;;;;;;;;;;15.70;99.90;;;;;;4212091;28;19928;-59
2022/08/30 06:00:50;;;;;;;;;;;15.80;99.90;;;;;;4213378;28;19924;-59
2022/08/30 06:02:53;;;;;;;;;;;15.80;99.90;;;;;;4213480;28;20411;-59
2022/08/30 06:04:56;;;;;;;;;;;15.90;99.90;;;;;;4211940;28;19924;-59
2022/08/30 06:06:58;;;;;;;;;;;16.00;99.90;;;;;;4213179;28;19924;-59
2022/08/30 06:09:00;;;;;;;;;;;16.10;99.90;;;;;;4213212;28;20022;-60
2022/08/30 06:11:02;;;;;;;;;;;16.10;99.90;;;;;;4213459;28;19935;-56
2022/08/30 06:13:04;;;;;;;;;;;16.20;99.90;;;;;;4213353;28;20379;-59
2022/08/30 06:15:06;;;;;;;;;;;16.40;99.90;;;;;;4213190;28;19924;-59
2022/08/30 06:17:08;;;;;;;;;;;16.50;99.90;;;;;;4213379;28;19997;-60
2022/08/30 06:19:11;;;;;;;;;;;16.60;99.90;;;;;;4213320;28;19924;-59
2022/08/30 06:21:16;;;;;;;;;;;16.70;99.90;;;;;;4213238;28;19957;-59
2022/08/30 06:23:18;;;;;;;;;;;16.70;99.90;;;;;;4213066;28;19928;-59
2022/08/30 06:25:20;;;;;;;;;;;16.70;99.90;;;;;;4222822;28;20294;-60
2022/08/30 06:27:22;;;;;;;;;;;16.90;99.90;;;;;;4230418;28;19928;-59
2022/08/30 06:29:23;;;;;;;;;;;17.00;99.90;;;;;;4229960;28;19931;-59
2022/08/30 06:31:26;;;;;;;;;;;17.10;99.90;;;;;;4229939;27;19924;-60
2022/08/30 06:33:28;;;;;;;;;;;17.10;99.90;;;;;;4229747;28;19928;-60
2022/08/30 06:35:30;;;;;;;;;;;17.20;99.90;;;;;;4230242;27;20334;-60
2022/08/30 06:37:38;;;;;;;;;;;17.30;99.90;;;;;;4230013;28;20385;-59
2022/08/30 06:39:40;;;;;;;;;;;17.40;99.90;;;;;;4233248;27;20461;-59
2022/08/30 06:41:42;;;;;;;;;;;17.50;99.90;;;;;;4233049;28;20267;-60
2022/08/30 06:43:44;;;;;;;;;;;17.70;99.90;;;;;;4233213;27;20014;-60
2022/08/30 06:45:50;;;;;;;;;;;18.00;99.90;;;;;;4232995;28;19974;-60
2022/08/30 06:47:52;;;;;;;;;;;18.30;99.90;;;;;;4220782;28;19931;-60
2022/08/30 06:49:54;;;;;;;;;;;18.30;99.90;;;;;;4216120;28;19936;-60
2022/08/30 06:51:55;;;;;;;;;;;18.40;99.90;;;;;;4216310;28;19931;-60
2022/08/30 06:53:58;;;;;;;;;;;18.40;99.90;;;;;;4216079;28;20026;-60
2022/08/30 06:56:06;;;;;;;;;;;18.40;99.90;;;;;;4216054;28;19932;-59
2022/08/30 06:58:07;;;;;;;;;;;18.50;99.90;;;;;;4216221;28;19928;-60
2022/08/30 07:00:12;;;;;;;;;;;18.70;99.90;;;;;;4215777;28;19924;-60
2022/08/30 07:02:14;;;;;;;;;;;18.90;99.90;;;;;;4213133;28;19931;-60
2022/08/30 07:04:16;;;;;;;;;;;18.90;99.90;;;;;;4210075;28;19960;-60
2022/08/30 07:06:19;;;;;;;;;;;19.00;99.90;;;;;;4215365;28;20284;-60
2022/08/30 07:08:21;;;;;;;;;;;19.10;99.90;;;;;;4215890;28;19928;-60
2022/08/30 07:10:23;;;;;;;;;;;19.20;99.90;;;;;;4215770;28;19973;-60
2022/08/30 07:12:25;;;;;;;;;;;19.30;99.90;;;;;;4215089;28;19974;-60
2022/08/30 07:14:27;;;;;;;;;;;19.20;99.90;;;;;;4210795;28;19970;-60
2022/08/30 07:16:30;;;;;;;;;;;19.30;99.90;;;;;;4214862;28;20366;-60
2022/08/30 07:18:50;;;;;;;;;;;19.40;99.90;;;;;;4215694;28;20454;-60
2022/08/30 07:20:52;;;;;;;;;;;19.70;99.90;;;;;;4219097;28;20397;-60
2022/08/30 07:22:54;;;;;;;;;;;19.60;99.90;;;;;;4228831;27;20145;-60
2022/08/30 07:24:56;;;;;;;;;;;19.60;99.90;;;;;;4206436;28;19924;-60
2022/08/30 07:26:59;;;;;;;;;;;19.50;99.90;;;;;;4207805;28;20130;-60
2022/08/30 07:29:02;;;;;;;;;;;19.50;99.90;;;;;;4215290;28;20356;-59
2022/08/30 07:31:05;;;;;;;;;;;19.60;99.90;;;;;;4199575;28;19932;-60
2022/08/30 07:33:12;;;;;;;;;;;19.90;99.90;;;;;;4212789;28;19927;-59
2022/08/30 07:35:14;;;;;;;;;;;20.00;99.90;;;;;;4204873;28;19939;-60
2022/08/30 07:37:16;;;;;;;;;;;20.50;99.90;;;;;;4206553;28;19974;-60
2022/08/30 07:39:20;;;;;;;;;;;20.60;99.90;;;;;;4215334;28;19981;-60
2022/08/30 07:41:29;;;;;;;;;;;20.70;99.90;;;;;;4214099;28;20022;-59
2022/08/30 07:43:35;;;;;;;;;;;21.00;99.90;;;;;;4208779;28;19928;-60
2022/08/30 07:45:37;;;;;;;;;;;21.60;99.90;;;;;;4209105;28;19928;-60
2022/08/30 07:47:39;;;;;;;;;;;21.70;99.90;;;;;;4208022;28;19935;-60
2022/08/30 07:49:41;;;;;;;;;;;21.80;99.90;;;;;;4215007;28;20268;-60
2022/08/30 07:51:43;;;;;;;;;;;21.80;99.90;;;;;;4215107;28;19931;-60
2022/08/30 07:53:45;;;;;;;;;;;22.30;99.90;;;;;;4209357;28;19929;-60
2022/08/30 07:55:47;;;;;;;;;;;22.30;99.90;;;;;;4207558;28;19951;-60
2022/08/30 07:57:50;;;;;;;;;;;22.30;99.90;;;;;;4208563;28;19928;-60
2022/08/30 07:59:52;;;;;;;;;;;22.30;99.90;;;;;;4207463;28;19939;-60
2022/08/30 08:01:54;;;;;;;;;;;22.50;99.90;;;;;;4206556;28;19931;-60
2022/08/30 08:03:56;;;;;;;;;;;22.60;99.90;;;;;;4208739;28;19972;-60
2022/08/30 08:06:00;;;;;;;;;;;22.60;99.90;;;;;;4208834;28;19924;-60
2022/08/30 08:08:02;;;;;;;;;;;22.50;99.90;;;;;;4210554;28;19928;-60
2022/08/30 08:10:04;;;;;;;;;;;22.50;99.90;;;;;;4212903;28;20347;-60
2022/08/30 08:12:06;;;;;;;;;;;22.80;99.90;;;;;;4204497;28;20363;-60
2022/08/30 08:14:08;;;;;;;;;;;23.00;99.90;;;;;;4203642;28;19928;-60
2022/08/30 08:16:10;;;;;;;;;;;23.20;99.90;;;;;;4205673;28;19931;-60
2022/08/30 08:18:12;;;;;;;;;;;23.40;99.90;;;;;;4204649;28;20242;-60
2022/08/30 08:20:14;;;;;;;;;;;23.50;99.90;;;;;;4208275;28;19967;-60
2022/08/30 08:22:16;;;;;;;;;;;23.40;99.90;;;;;;4206617;28;20325;-60
2022/08/30 08:24:22;;;;;;;;;;;23.50;99.90;;;;;;4206385;28;19932;-60
2022/08/30 08:26:24;;;;;;;;;;;23.70;99.90;;;;;;4208868;28;19935;-60
2022/08/30 08:28:26;;;;;;;;;;;24.00;99.90;;;;;;4214286;28;20377;-61
2022/08/30 08:30:32;;;;;;;;;;;24.00;99.90;;;;;;4208714;28;20007;-60
2022/08/30 08:32:34;;;;;;;;;;;24.00;99.90;;;;;;4210579;28;20302;-60
2022/08/30 08:34:35;;;;;;;;;;;24.00;99.90;;;;;;4213881;28;19928;-61
2022/08/30 08:36:37;;;;;;;;;;;24.10;99.90;;;;;;4208637;28;19936;-61
2022/08/30 08:38:40;;;;;;;;;;;24.30;99.90;;;;;;4209411;28;19935;-60
2022/08/30 08:40:51;;;;;;;;;;;24.40;99.90;;;;;;4211030;28;20479;-60
2022/08/30 08:42:53;;;;;;;;;;;24.70;99.90;;;;;;4207582;28;19935;-60
2022/08/30 08:44:59;;;;;;;;;;;24.60;99.90;;;;;;4207684;28;20436;-60
2022/08/30 08:47:10;;;;;;;;;;;24.20;99.90;;;;;;4205361;28;19932;-60
2022/08/30 08:49:12;;;;;;;;;;;24.30;99.90;;;;;;4205502;28;19935;-60
2022/08/30 08:53:36;;;;;;;;;;;24.80;99.90;;;;;;4210873;28;19928;-60
2022/08/30 08:55:48;;;;;;;;;;;25.20;99.90;;;;;;4214035;28;20014;-60
2022/08/30 08:57:51;;;;;;;;;;;25.70;99.90;;;;;;4214284;28;19928;-61
2022/08/30 08:59:53;;;;;;;;;;;25.90;99.90;;;;;;4213980;28;19924;-60
2022/08/30 09:02:01;;;;;;;;;;;26.20;99.90;;;;;;4213609;28;19931;-60
2022/08/30 09:04:21;;;;;;;;;;;26.30;99.90;;;;;;4213929;28;20473;-61
2022/08/30 09:06:32;;;;;;;;;;;26.30;99.90;;;;;;4213854;28;19935;-60
2022/08/30 09:08:35;;;;;;;;;;;26.60;99.90;;;;;;4208586;28;19931;-61
2022/08/30 09:10:38;;;;;;;;;;;26.70;99.90;;;;;;4197190;28;19954;-61
2022/08/30 09:12:52;;;;;;;;;;;26.60;99.90;;;;;;4211726;28;19924;-60
2022/08/30 09:15:10;;;;;;;;;;;26.80;99.90;;;;;;4213685;28;19931;-60
2022/08/30 09:17:13;;;;;;;;;;;26.70;99.90;;;;;;4213759;28;19934;-60
2022/08/30 09:19:33;;;;;;;;;;;26.70;99.90;;;;;;4214056;28;20360;-60
2022/08/30 09:21:36;;;;;;;;;;;27.10;99.90;;;;;;4213629;28;20383;-60
2022/08/30 09:23:46;;;;;;;;;;;27.50;99.90;;;;;;4213618;28;20383;-60
2022/08/30 09:25:58;;;;;;;;;;;27.40;99.90;;;;;;4213988;28;19931;-60
2022/08/30 09:28:24;;;;;;;;;;;27.30;99.90;;;;;;4213509;28;19972;-60
2022/08/30 09:30:27;;;;;;;;;;;27.40;99.90;;;;;;4207680;28;19932;-60
2022/08/30 09:32:31;;;;;;;;;;;27.30;99.90;;;;;;4213447;28;19999;-61
2022/08/30 09:34:33;;;;;;;;;;;27.60;99.90;;;;;;4213520;28;19935;-60
2022/08/30 09:36:43;;;;;;;;;;;27.40;99.90;;;;;;4213613;28;20379;-61
2022/08/30 09:38:45;;;;;;;;;;;27.60;99.90;;;;;;4197008;28;20366;-60
2022/08/30 09:40:51;;;;;;;;;;;27.80;99.90;;;;;;4204947;28;19931;-60
2022/08/30 09:43:25;;;;;;;;;;;28.10;99.90;;;;;;4213568;28;20014;-60
2022/08/30 09:45:30;;;;;;;;;;;28.10;99.90;;;;;;4161753;28;20396;-60
2022/08/30 09:47:32;;;;;;;;;;;28.00;99.90;;;;;;4172299;28;19929;-61
2022/08/30 09:49:42;;;;;;;;;;;28.30;99.90;;;;;;4178317;28;19948;-60
2022/08/30 09:51:54;;;;;;;;;;;28.50;99.90;;;;;;4178427;28;19971;-60
2022/08/30 09:53:56;;;;;;;;;;;28.50;99.90;;;;;;4178101;28;19991;-60
2022/08/30 09:56:37;;;;;;;;;;;28.90;99.90;;;;;;4178197;28;20515;-60
2022/08/30 09:58:48;;;;;;;;;;;28.70;99.90;;;;;;4178111;28;20442;-60
2022/08/30 10:00:59;;;;;;;;;;;28.80;99.90;;;;;;4178235;28;19929;-60
2022/08/30 10:03:20;;;;;;;;;;;28.70;99.90;;;;;;4178336;28;20379;-60
2022/08/30 10:05:51;;;;;;;;;;;28.70;99.90;;;;;;4178251;28;19928;-60
2022/08/30 10:07:53;;;;;;;;;;;28.90;99.90;;;;;;4178079;28;19960;-59
2022/08/30 10:10:04;;;;;;;;;;;28.70;99.90;;;;;;4184093;28;19974;-60
2022/08/30 10:12:15;;;;;;;;;;;28.70;99.90;;;;;;4194707;28;19935;-60
2022/08/30 10:14:29;;;;;;;;;;;28.70;99.90;;;;;;4197094;28;20011;-60
2022/08/30 10:16:40;;;;;;;;;;;28.70;99.90;;;;;;4197763;28;19924;-60
2022/08/30 10:18:42;;;;;;;;;;;28.90;99.90;;;;;;4197709;28;19930;-60
2022/08/30 10:20:54;;;;;;;;;;;29.10;99.90;;;;;;4204598;28;19934;-60
2022/08/30 10:23:13;;;;;;;;;;;28.70;99.90;;;;;;4233296;28;19924;-60
2022/08/30 10:25:18;;;;;;;;;;;29.00;99.90;;;;;;4233230;28;19955;-60
2022/08/30 10:27:23;;;;;;;;;;;28.70;99.90;;;;;;4233385;28;20406;-59
2022/08/30 10:29:28;;;;;;;;;;;28.70;99.90;;;;;;4213520;28;20391;-59
2022/08/30 10:31:33;;;;;;;;;;;28.80;99.90;;;;;;4215768;28;19932;-60
2022/08/30 10:33:41;;;;;;;;;;;29.10;99.90;;;;;;4216129;28;19967;-60
2022/08/30 10:35:45;;;;;;;;;;;29.00;99.90;;;;;;4216312;28;19932;-59
2022/08/30 10:37:51;;;;;;;;;;;28.80;99.90;;;;;;4212940;28;19928;-60
2022/08/30 10:39:57;;;;;;;;;;;29.30;99.90;;;;;;4199584;28;19955;-60
2022/08/30 10:42:10;;;;;;;;;;;28.80;99.70;;;;;;4199553;28;19964;-60
2022/08/30 10:44:21;;;;;;;;;;;28.60;99.90;;;;;;4213949;28;19927;-59
2022/08/30 10:46:26;;;;;;;;;;;28.70;99.90;;;;;;4215386;28;19928;-59
2022/08/30 10:48:35;;;;;;;;;;;29.00;99.90;;;;;;4210643;28;19939;-59
2022/08/30 10:50:41;;;;;;;;;;;29.20;99.90;;;;;;4213773;28;19931;-59
2022/08/30 10:52:46;;;;;;;;;;;29.30;99.90;;;;;;4215758;28;19924;-60
2022/08/30 10:54:49;;;;;;;;;;;29.40;99.90;;;;;;4207791;28;19924;-60
2022/08/30 10:56:51;;;;;;;;;;;29.00;99.90;;;;;;4213391;28;19932;-59
2022/08/30 10:58:55;;;;;;;;;;;29.00;99.90;;;;;;4211640;28;19938;-58
2022/08/30 11:01:16;;;;;;;;;;;29.40;99.90;;;;;;4199198;28;20433;-60
2022/08/30 11:03:18;;;;;;;;;;;29.40;99.70;;;;;;4213158;28;19981;-60
2022/08/30 11:05:20;;;;;;;;;;;29.10;99.90;;;;;;4202759;28;19928;-59
2022/08/30 11:07:25;;;;;;;;;;;29.30;99.90;;;;;;4231530;28;19934;-60
2022/08/30 11:09:33;;;;;;;;;;;29.30;99.90;;;;;;4217514;28;19993;-59
2022/08/30 11:11:53;;;;;;;;;;;29.50;99.90;;;;;;4214353;28;20320;-60
2022/08/30 11:13:55;;;;;;;;;;;29.60;99.90;;;;;;4214628;28;20379;-59
2022/08/30 11:16:00;;;;;;;;;;;29.50;98.90;;;;;;4212596;28;19935;-59
2022/08/30 11:18:04;;;;;;;;;;;29.40;99.60;;;;;;4215290;28;19928;-60
2022/08/30 11:20:20;;;;;;;;;;;29.60;99.30;;;;;;4215772;28;19978;-60
2022/08/30 11:22:21;;;;;;;;;;;29.60;98.90;;;;;;4215390;28;19934;-58
2022/08/30 11:24:24;;;;;;;;;;;29.60;98.80;;;;;;4212745;28;19924;-60
2022/08/30 11:26:44;;;;;;;;;;;29.80;97.80;;;;;;4198948;28;20383;-60
2022/08/30 11:28:47;;;;;;;;;;;29.50;97.40;;;;;;4212032;28;19964;-60
2022/08/30 11:30:49;;;;;;;;;;;29.60;97.90;;;;;;4201382;28;19924;-59
2022/08/30 11:32:58;;;;;;;;;;;29.80;98.50;;;;;;4203771;28;19924;-60
2022/08/30 11:35:00;;;;;;;;;;;29.70;97.90;;;;;;4214575;28;20449;-60
2022/08/30 11:37:02;;;;;;;;;;;29.90;97.50;;;;;;4215184;28;19924;-59
2022/08/30 11:39:06;;;;;;;;;;;29.70;97.20;;;;;;4215145;28;19935;-59
2022/08/30 11:41:09;;;;;;;;;;;29.80;96.90;;;;;;4212291;28;19928;-60
2022/08/30 11:43:30;;;;;;;;;;;30.00;96.70;;;;;;4199561;28;19990;-60
2022/08/30 11:45:42;;;;;;;;;;;30.10;96.50;;;;;;4214851;28;19928;-60
2022/08/30 11:47:46;;;;;;;;;;;30.30;95.80;;;;;;4209481;28;20341;-59
2022/08/30 11:49:55;;;;;;;;;;;30.10;95.70;;;;;;4208532;28;19947;-60
2022/08/30 11:52:16;;;;;;;;;;;30.00;95.30;;;;;;4205120;28;19993;-59
2022/08/30 11:54:31;;;;;;;;;;;29.90;95.80;;;;;;4207781;28;19932;-59
2022/08/30 11:56:38;;;;;;;;;;;30.20;95.90;;;;;;4206460;28;19963;-60
2022/08/30 11:58:58;;;;;;;;;;;29.90;95.20;;;;;;4204262;28;19974;-60
2022/08/30 12:01:33;;;;;;;;;;;29.90;95.00;;;;;;4214021;28;20068;-60
2022/08/30 12:04:05;;;;;;;;;;;30.00;96.00;;;;;;4171311;28;19933;-60
2022/08/30 12:06:09;;;;;;;;;;;29.90;94.50;;;;;;4168468;28;19931;-59
2022/08/30 12:08:20;;;;;;;;;;;29.80;93.60;;;;;;4177125;28;19956;-59